createdAt,value
2023-01-29T00:00:15.404Z,9.97
2023-01-29T00:02:43.966Z,10.30
2023-01-29T00:05:27.073Z,10.10
2023-01-29T00:07:57.746Z,10.57
2023-01-29T00:10:26.780Z,10.03
2023-01-29T00:12:55.300Z,10.13
2023-01-29T00:15:23.729Z,11.17
2023-01-29T00:17:52.773Z,10.47
2023-01-29T00:20:21.266Z,9.70
2023-01-29T00:22:49.996Z,10.30
2023-01-29T00:25:20.057Z,10.43
2023-01-29T00:27:48.357Z,9.63
2023-01-29T00:30:19.683Z,9.20
2023-01-29T00:32:48.514Z,9.83
2023-01-29T00:35:17.300Z,9.83
2023-01-29T00:37:45.562Z,9.47
2023-01-29T00:40:15.242Z,9.17
2023-01-29T00:43:03.555Z,8.90
2023-01-29T00:45:32.226Z,9.30
2023-01-29T00:48:00.782Z,9.00
2023-01-29T00:50:29.134Z,9.60
2023-01-29T00:52:57.516Z,9.07
2023-01-29T00:55:25.884Z,9.37
2023-01-29T00:57:55.810Z,8.50
2023-01-29T01:00:28.513Z,9.47
2023-01-29T01:03:07.778Z,9.63
2023-01-29T01:05:37.122Z,9.63
2023-01-29T01:08:25.862Z,9.70
2023-01-29T01:11:00.299Z,9.77
2023-01-29T01:13:30.806Z,9.57
2023-01-29T01:15:59.118Z,10.30
2023-01-29T01:18:30.263Z,9.93
2023-01-29T01:21:00.009Z,10.30
2023-01-29T01:23:28.350Z,9.83
2023-01-29T01:25:56.655Z,9.00
2023-01-29T01:28:25.077Z,9.70
2023-01-29T01:30:54.914Z,9.33
2023-01-29T01:33:23.378Z,9.47
2023-01-29T01:35:51.689Z,9.27
2023-01-29T01:38:20.035Z,8.23
2023-01-29T01:40:48.442Z,8.33
2023-01-29T01:43:16.798Z,8.80
2023-01-29T01:45:46.780Z,8.57
2023-01-29T01:48:19.504Z,9.00
2023-01-29T01:50:51.231Z,8.70
2023-01-29T01:53:23.984Z,8.43
2023-01-29T01:55:59.152Z,8.37
2023-01-29T01:58:30.395Z,8.00
2023-01-29T02:00:59.227Z,8.13
2023-01-29T02:03:48.230Z,7.93
2023-01-29T02:06:34.330Z,8.20
2023-01-29T02:09:24.658Z,7.90
2023-01-29T02:11:53.400Z,7.70
2023-01-29T02:14:22.249Z,7.87
2023-01-29T02:16:51.175Z,7.93
2023-01-29T02:19:29.860Z,7.90
2023-01-29T02:22:38.199Z,8.10
2023-01-29T02:25:59.934Z,8.17
2023-01-29T02:28:36.577Z,8.07
2023-01-29T02:31:14.043Z,7.87
2023-01-29T02:33:55.743Z,7.60
2023-01-29T02:36:33.580Z,7.30
2023-01-29T02:39:09.935Z,7.47
2023-01-29T02:41:43.532Z,7.40
2023-01-29T02:44:23.318Z,7.40
2023-01-29T02:46:59.260Z,7.27
2023-01-29T02:49:34.995Z,7.83
2023-01-29T02:52:09.723Z,7.43
2023-01-29T02:54:46.568Z,7.83
2023-01-29T02:57:23.123Z,7.40
2023-01-29T02:59:57.336Z,7.40
2023-01-29T03:02:32.625Z,7.23
2023-01-29T03:05:06.574Z,7.10
2023-01-29T03:07:44.289Z,6.73
2023-01-29T03:10:19.009Z,6.83
2023-01-29T03:12:55.813Z,6.93
2023-01-29T03:15:30.429Z,7.03
2023-01-29T03:18:03.810Z,6.77
2023-01-29T03:20:36.888Z,6.97
2023-01-29T03:23:10.392Z,6.70
2023-01-29T03:25:58.812Z,6.70
2023-01-29T03:28:47.291Z,6.30
2023-01-29T03:31:37.263Z,6.40
2023-01-29T03:34:16.557Z,6.10
2023-01-29T03:36:56.173Z,6.37
2023-01-29T03:39:28.564Z,6.20
2023-01-29T03:42:02.807Z,6.10
2023-01-29T03:44:37.377Z,6.30
2023-01-29T03:47:16.158Z,6.90
2023-01-29T03:49:56.668Z,6.10
2023-01-29T03:52:30.142Z,5.80
2023-01-29T03:55:07.360Z,5.60
2023-01-29T03:57:40.300Z,6.70
2023-01-29T04:00:16.126Z,6.13
2023-01-29T04:02:52.877Z,11.20
2023-01-29T04:05:26.098Z,7.73
2023-01-29T04:07:59.151Z,6.43
2023-01-29T04:10:31.092Z,8.00
2023-01-29T04:13:03.430Z,12.97
2023-01-29T04:15:36.510Z,8.67
2023-01-29T04:18:06.237Z,6.80
2023-01-29T04:20:36.089Z,6.20
2023-01-29T04:23:07.595Z,5.90
2023-01-29T04:25:43.872Z,6.10
2023-01-29T04:28:20.580Z,5.50
2023-01-29T04:30:55.214Z,5.83
2023-01-29T04:33:34.033Z,5.93
2023-01-29T04:36:20.110Z,5.50
2023-01-29T04:39:00.266Z,5.50
2023-01-29T04:41:35.336Z,4.97
2023-01-29T04:44:10.725Z,5.00
2023-01-29T04:46:48.942Z,5.20
2023-01-29T04:49:28.813Z,5.40
2023-01-29T04:52:03.358Z,5.30
2023-01-29T04:54:41.323Z,5.37
2023-01-29T04:57:15.853Z,5.27
2023-01-29T04:59:49.577Z,4.87
2023-01-29T05:02:20.748Z,4.57
2023-01-29T05:04:52.023Z,4.63
2023-01-29T05:07:22.004Z,4.93
2023-01-29T05:09:52.017Z,4.63
2023-01-29T05:12:20.400Z,5.07
2023-01-29T05:14:50.574Z,4.83
2023-01-29T05:17:21.353Z,5.07
2023-01-29T05:19:51.197Z,5.20
2023-01-29T05:22:22.892Z,5.60
2023-01-29T05:24:51.523Z,5.27
2023-01-29T05:27:39.986Z,5.23
2023-01-29T05:30:10.427Z,5.07
2023-01-29T05:32:39.824Z,5.07
2023-01-29T05:35:10.114Z,5.20
2023-01-29T05:37:38.594Z,5.00
2023-01-29T05:40:09.052Z,5.13
2023-01-29T05:42:37.367Z,4.80
2023-01-29T05:45:07.283Z,5.10
2023-01-29T05:47:35.679Z,4.73
2023-01-29T05:50:04.341Z,4.80
2023-01-29T05:52:34.176Z,4.60
2023-01-29T05:55:02.684Z,4.50
2023-01-29T05:57:31.027Z,4.80
2023-01-29T05:59:59.358Z,4.93
2023-01-29T06:02:30.312Z,4.90
2023-01-29T06:04:58.704Z,4.47
2023-01-29T06:07:27.242Z,4.83
2023-01-29T06:09:56.978Z,4.90
2023-01-29T06:12:25.296Z,4.77
2023-01-29T06:14:53.823Z,4.50
2023-01-29T06:17:22.121Z,4.73
2023-01-29T06:19:50.368Z,5.13
2023-01-29T06:22:18.755Z,5.17
2023-01-29T06:24:47.055Z,5.33
2023-01-29T06:27:16.844Z,4.57
2023-01-29T06:29:45.252Z,4.60
2023-01-29T06:32:13.613Z,4.73
2023-01-29T06:34:42.031Z,4.77
2023-01-29T06:37:10.317Z,4.57
2023-01-29T06:39:38.597Z,4.40
2023-01-29T06:42:07.035Z,4.70
2023-01-29T06:44:36.784Z,4.40
2023-01-29T06:47:05.397Z,4.93
2023-01-29T06:49:33.792Z,5.33
2023-01-29T06:52:02.037Z,5.40
2023-01-29T06:54:30.673Z,4.80
2023-01-29T06:56:59.154Z,5.00
2023-01-29T06:59:27.508Z,5.20
2023-01-29T07:01:57.510Z,10.57
2023-01-29T07:04:25.865Z,13.20
2023-01-29T07:06:54.158Z,7.60
2023-01-29T07:09:22.481Z,5.13
2023-01-29T07:11:50.921Z,4.97
2023-01-29T07:14:19.188Z,5.07
2023-01-29T07:16:47.515Z,5.10
2023-01-29T07:19:17.356Z,5.30
2023-01-29T07:21:45.846Z,5.43
2023-01-29T07:24:14.313Z,8.03
2023-01-29T07:26:42.675Z,13.83
2023-01-29T07:29:11.210Z,14.33
2023-01-29T07:31:39.673Z,9.50
2023-01-29T07:34:08.165Z,6.00
2023-01-29T07:36:38.431Z,4.80
2023-01-29T07:39:06.767Z,4.90
2023-01-29T07:41:35.098Z,6.50
2023-01-29T07:44:03.605Z,6.37
2023-01-29T07:46:31.860Z,6.47
2023-01-29T07:49:00.434Z,5.43
2023-01-29T07:51:28.838Z,6.23
2023-01-29T07:53:58.584Z,5.57
2023-01-29T07:56:27.114Z,5.57
2023-01-29T07:58:55.465Z,6.20
2023-01-29T08:01:24.000Z,8.73
2023-01-29T08:03:52.480Z,16.37
2023-01-29T08:06:20.785Z,11.53
2023-01-29T08:08:49.083Z,9.83
2023-01-29T08:11:19.385Z,10.70
2023-01-29T08:13:48.009Z,7.57
2023-01-29T08:16:16.641Z,6.63
2023-01-29T08:18:47.819Z,6.27
2023-01-29T08:21:16.584Z,5.33
2023-01-29T08:23:44.851Z,5.37
2023-01-29T08:26:13.188Z,5.00
2023-01-29T08:28:42.896Z,5.33
2023-01-29T08:31:16.004Z,4.50
2023-01-29T08:33:44.320Z,5.17
2023-01-29T08:36:12.765Z,5.30
2023-01-29T08:38:41.631Z,4.90
2023-01-29T08:41:10.566Z,5.00
2023-01-29T08:43:40.018Z,4.60
2023-01-29T08:46:10.533Z,5.10
2023-01-29T08:48:39.420Z,4.53
2023-01-29T08:51:08.450Z,4.50
2023-01-29T08:53:37.042Z,4.70
2023-01-29T08:56:05.888Z,4.40
2023-01-29T08:58:34.151Z,5.50
2023-01-29T09:01:09.979Z,5.20
2023-01-29T09:03:41.089Z,5.50
2023-01-29T09:06:11.470Z,4.90
2023-01-29T09:08:40.449Z,5.20
2023-01-29T09:11:09.155Z,5.10
2023-01-29T09:13:37.732Z,6.17
2023-01-29T09:16:06.716Z,6.60
2023-01-29T09:18:36.841Z,6.27
2023-01-29T09:21:05.836Z,6.83
2023-01-29T09:23:34.631Z,7.03
2023-01-29T09:26:03.383Z,7.20
2023-01-29T09:28:31.737Z,6.33
2023-01-29T09:31:03.289Z,6.00
2023-01-29T09:33:32.508Z,5.87
2023-01-29T09:36:04.255Z,4.90
2023-01-29T09:38:32.642Z,4.60
2023-01-29T09:41:10.792Z,4.33
2023-01-29T09:43:54.407Z,4.20
2023-01-29T09:46:29.639Z,4.50
2023-01-29T09:49:04.762Z,4.67
2023-01-29T09:51:41.422Z,3.93
2023-01-29T09:54:19.415Z,4.40
2023-01-29T09:56:49.651Z,4.67
2023-01-29T09:59:21.243Z,4.50
2023-01-29T10:02:01.101Z,4.57
2023-01-29T10:05:18.161Z,4.50
2023-01-29T10:08:19.853Z,4.53
2023-01-29T10:10:53.313Z,7.73
2023-01-29T10:13:30.970Z,9.20
2023-01-29T10:16:22.612Z,9.07
2023-01-29T10:19:17.555Z,7.60
2023-01-29T10:22:10.942Z,7.03
2023-01-29T10:24:40.767Z,5.50
2023-01-29T10:27:18.936Z,5.20
2023-01-29T10:29:51.661Z,5.63
2023-01-29T10:32:22.087Z,5.63
2023-01-29T10:34:53.681Z,5.23
2023-01-29T10:37:24.841Z,5.50
2023-01-29T10:39:53.211Z,5.43
2023-01-29T10:42:31.111Z,4.90
2023-01-29T10:45:20.308Z,4.60
2023-01-29T10:48:06.327Z,4.90
2023-01-29T10:50:47.102Z,4.60
2023-01-29T10:53:43.343Z,4.53
2023-01-29T10:56:25.920Z,4.33
2023-01-29T10:58:58.827Z,4.00
2023-01-29T11:01:29.961Z,3.73
2023-01-29T11:04:00.725Z,3.80
2023-01-29T11:06:32.277Z,4.10
2023-01-29T11:09:09.864Z,3.63
2023-01-29T11:11:45.186Z,3.80
2023-01-29T11:14:20.337Z,3.80
2023-01-29T11:16:50.117Z,4.03
2023-01-29T11:19:18.816Z,3.60
2023-01-29T11:21:57.949Z,3.92
2023-01-29T11:24:27.624Z,3.30
2023-01-29T11:27:00.009Z,3.50
2023-01-29T11:29:38.356Z,3.70
2023-01-29T11:32:09.734Z,3.67
2023-01-29T11:34:58.618Z,3.88
2023-01-29T11:37:35.110Z,3.88
2023-01-29T11:40:13.011Z,3.60
2023-01-29T11:42:41.305Z,5.57
2023-01-29T11:45:27.480Z,5.32
2023-01-29T11:47:57.644Z,5.60
2023-01-29T11:50:27.832Z,5.93
2023-01-29T11:52:56.602Z,6.25
2023-01-29T11:55:26.854Z,5.32
2023-01-29T11:58:02.938Z,4.60
2023-01-29T12:00:35.043Z,4.10
2023-01-29T12:03:12.542Z,3.95
2023-01-29T12:05:42.124Z,5.90
2023-01-29T12:08:18.479Z,5.07
2023-01-29T12:10:46.851Z,4.13
2023-01-29T12:13:26.769Z,4.43
2023-01-29T12:16:20.299Z,4.47
2023-01-29T12:18:52.864Z,4.32
2023-01-29T12:21:28.258Z,4.80
2023-01-29T12:24:00.591Z,8.38
2023-01-29T12:26:33.773Z,8.57
2023-01-29T12:29:18.377Z,5.50
2023-01-29T12:31:53.431Z,4.78
2023-01-29T12:34:28.865Z,3.65
2023-01-29T12:37:02.326Z,5.18
2023-01-29T12:39:32.655Z,4.20
2023-01-29T12:42:06.645Z,3.90
2023-01-29T12:44:42.684Z,4.07
2023-01-29T12:47:22.336Z,3.70
2023-01-29T12:49:55.159Z,3.55
2023-01-29T12:52:40.016Z,3.88
2023-01-29T12:55:31.582Z,4.57
2023-01-29T12:58:20.054Z,5.10
2023-01-29T13:01:01.664Z,6.80
2023-01-29T13:03:38.687Z,7.88
2023-01-29T13:06:11.645Z,7.50
2023-01-29T13:08:43.516Z,6.57
2023-01-29T13:11:20.470Z,7.22
2023-01-29T13:13:54.595Z,6.57
2023-01-29T13:16:28.082Z,6.28
2023-01-29T13:19:11.193Z,6.18
2023-01-29T13:21:44.125Z,5.80
2023-01-29T13:24:16.674Z,4.50
2023-01-29T13:26:47.153Z,4.55
2023-01-29T13:29:31.718Z,5.40
2023-01-29T13:32:02.013Z,5.20
2023-01-29T13:34:34.505Z,4.97
2023-01-29T13:37:04.689Z,5.57
2023-01-29T13:39:37.540Z,5.07
2023-01-29T13:42:19.403Z,5.15
2023-01-29T13:44:55.149Z,5.25
2023-01-29T13:47:29.246Z,4.90
2023-01-29T13:50:02.687Z,5.65
2023-01-29T13:52:40.223Z,6.65
2023-01-29T13:55:22.423Z,7.30
2023-01-29T13:57:56.050Z,7.18
2023-01-29T14:00:58.739Z,7.68
2023-01-29T14:04:04.853Z,6.70
2023-01-29T14:06:47.052Z,7.47
2023-01-29T14:09:37.136Z,6.95
2023-01-29T14:12:47.219Z,7.60
2023-01-29T14:16:01.265Z,6.45
2023-01-29T14:18:30.731Z,6.70
2023-01-29T14:21:05.169Z,5.70
2023-01-29T14:23:41.944Z,6.03
2023-01-29T14:26:32.600Z,6.53
2023-01-29T14:29:05.614Z,6.20
2023-01-29T14:31:41.789Z,7.93
2023-01-29T14:34:23.704Z,8.70
2023-01-29T14:36:55.724Z,7.78
2023-01-29T14:39:36.938Z,7.65
2023-01-29T14:42:16.910Z,6.63
2023-01-29T14:44:55.418Z,6.82
2023-01-29T14:47:45.580Z,6.18
2023-01-29T14:50:42.876Z,6.47
2023-01-29T14:53:14.874Z,8.57
2023-01-29T14:55:49.712Z,8.53
2023-01-29T14:58:24.059Z,6.80
2023-01-29T15:00:55.529Z,6.68
2023-01-29T15:03:33.375Z,7.75
2023-01-29T15:06:02.185Z,7.80
2023-01-29T15:08:37.591Z,8.30
2023-01-29T15:11:31.254Z,9.23
2023-01-29T15:14:11.370Z,7.33
2023-01-29T15:16:52.420Z,7.50
2023-01-29T15:19:25.773Z,7.53
2023-01-29T15:22:11.919Z,8.83
2023-01-29T15:24:41.979Z,8.77
2023-01-29T15:27:24.665Z,8.47
2023-01-29T15:29:58.827Z,9.83
2023-01-29T15:32:32.363Z,9.90
2023-01-29T15:35:02.040Z,10.97
2023-01-29T15:37:34.208Z,13.73
2023-01-29T15:40:03.654Z,15.83
2023-01-29T15:42:46.817Z,14.87
2023-01-29T15:45:31.821Z,13.43
2023-01-29T15:48:05.637Z,9.17
2023-01-29T15:50:37.841Z,7.67
2023-01-29T15:53:11.428Z,9.00
2023-01-29T15:55:41.515Z,9.60
2023-01-29T15:58:16.996Z,9.87
2023-01-29T16:00:51.753Z,10.93
2023-01-29T16:03:24.735Z,9.70
2023-01-29T16:05:54.017Z,7.53
2023-01-29T16:08:24.088Z,7.03
2023-01-29T16:10:56.609Z,6.67
2023-01-29T16:13:29.307Z,7.60
2023-01-29T16:15:59.996Z,6.97
2023-01-29T16:18:35.347Z,7.27
2023-01-29T16:21:09.365Z,7.13
2023-01-29T16:23:43.124Z,8.07
2023-01-29T16:26:18.071Z,8.57
2023-01-29T16:28:48.933Z,10.03
2023-01-29T16:31:23.844Z,9.63
2023-01-29T16:33:52.661Z,10.87
2023-01-29T16:36:23.863Z,12.63
2023-01-29T16:38:55.397Z,13.17
2023-01-29T16:41:32.693Z,10.57
2023-01-29T16:44:03.929Z,11.47
2023-01-29T16:46:37.744Z,14.23
2023-01-29T16:49:45.472Z,12.43
2023-01-29T16:52:19.884Z,15.90
2023-01-29T16:54:53.994Z,17.57
2023-01-29T16:57:29.656Z,15.60
2023-01-29T17:00:03.384Z,14.17
2023-01-29T17:02:34.573Z,13.83
2023-01-29T17:05:06.592Z,15.33
2023-01-29T17:07:35.958Z,11.27
2023-01-29T17:10:07.092Z,12.57
2023-01-29T17:13:01.214Z,15.00
2023-01-29T17:15:36.314Z,17.30
2023-01-29T17:18:13.099Z,12.27
2023-01-29T17:20:41.956Z,12.67
2023-01-29T17:23:10.218Z,9.27
2023-01-29T17:25:39.098Z,11.27
2023-01-29T17:28:10.604Z,12.73
2023-01-29T17:30:40.943Z,14.13
2023-01-29T17:33:14.424Z,11.40
2023-01-29T17:35:43.696Z,16.27
2023-01-29T17:38:24.277Z,26.53
2023-01-29T17:40:59.109Z,23.60
2023-01-29T17:43:27.517Z,19.73
2023-01-29T17:45:57.403Z,18.23
2023-01-29T17:48:28.560Z,17.10
2023-01-29T17:51:04.766Z,16.90
2023-01-29T17:53:44.924Z,17.83
2023-01-29T17:56:18.502Z,17.17
2023-01-29T17:58:47.302Z,14.63
2023-01-29T18:01:17.027Z,14.47
2023-01-29T18:03:45.463Z,14.43
2023-01-29T18:06:21.561Z,17.07
2023-01-29T18:08:49.902Z,16.20
2023-01-29T18:11:18.209Z,19.23
2023-01-29T18:13:46.582Z,19.67
2023-01-29T18:16:18.367Z,24.67
2023-01-29T18:18:46.784Z,23.87
2023-01-29T18:21:15.085Z,23.60
2023-01-29T18:23:43.376Z,22.10
2023-01-29T18:26:12.812Z,15.27
2023-01-29T18:28:43.612Z,13.80
2023-01-29T18:31:13.951Z,14.53
2023-01-29T18:33:44.064Z,14.17
2023-01-29T18:36:12.469Z,14.70
2023-01-29T18:38:41.062Z,12.97
2023-01-29T18:41:11.441Z,13.13
2023-01-29T18:43:40.987Z,13.63
2023-01-29T18:46:10.229Z,16.23
2023-01-29T18:48:39.942Z,15.43
2023-01-29T18:51:11.450Z,17.20
2023-01-29T18:53:39.815Z,22.33
2023-01-29T18:56:09.132Z,22.13
2023-01-29T18:58:38.397Z,22.90
2023-01-29T19:01:09.817Z,23.70
2023-01-29T19:03:39.093Z,23.67
2023-01-29T19:06:09.300Z,22.07
2023-01-29T19:08:39.802Z,21.40
2023-01-29T19:11:09.085Z,24.93
2023-01-29T19:13:38.419Z,25.53
2023-01-29T19:16:09.214Z,24.33
2023-01-29T19:18:39.047Z,19.83
2023-01-29T19:21:09.048Z,20.80
2023-01-29T19:23:39.542Z,18.90
2023-01-29T19:26:08.338Z,20.73
2023-01-29T19:28:36.989Z,23.73
2023-01-29T19:31:05.630Z,29.17
2023-01-29T19:33:34.185Z,34.27
2023-01-29T19:36:02.803Z,32.63
2023-01-29T19:38:33.661Z,26.53
2023-01-29T19:41:05.444Z,23.97
2023-01-29T19:43:36.473Z,22.53
2023-01-29T19:46:05.253Z,19.73
2023-01-29T19:48:34.224Z,17.60
2023-01-29T19:51:06.968Z,18.50
2023-01-29T19:53:36.576Z,17.77
2023-01-29T19:56:08.953Z,18.30
2023-01-29T19:58:38.906Z,16.93
2023-01-29T20:01:09.306Z,18.57
2023-01-29T20:03:39.391Z,15.60
2023-01-29T20:06:09.759Z,16.00
2023-01-29T20:08:38.968Z,17.23
2023-01-29T20:11:09.801Z,16.83
2023-01-29T20:13:38.158Z,15.77
2023-01-29T20:16:09.789Z,16.07
2023-01-29T20:18:38.642Z,14.00
2023-01-29T20:21:09.627Z,14.57
2023-01-29T20:23:39.248Z,16.00
2023-01-29T20:26:13.211Z,16.13
2023-01-29T20:28:43.572Z,15.83
2023-01-29T20:31:12.407Z,14.93
2023-01-29T20:33:41.718Z,15.30
2023-01-29T20:36:12.413Z,19.17
2023-01-29T20:38:41.092Z,16.83
2023-01-29T20:41:14.625Z,15.10
2023-01-29T20:43:43.592Z,13.93
2023-01-29T20:46:13.290Z,12.20
2023-01-29T20:48:43.076Z,11.50
2023-01-29T20:51:15.478Z,10.63
2023-01-29T20:53:45.571Z,11.13
2023-01-29T20:56:17.622Z,11.23
2023-01-29T20:58:47.433Z,11.30
2023-01-29T21:01:19.106Z,11.43
2023-01-29T21:03:48.485Z,10.40
2023-01-29T21:06:21.538Z,11.20
2023-01-29T21:08:50.329Z,11.97
2023-01-29T21:11:21.706Z,12.37
2023-01-29T21:13:53.510Z,12.33
2023-01-29T21:16:22.447Z,13.07
2023-01-29T21:18:52.011Z,14.50
2023-01-29T21:21:20.503Z,15.17
2023-01-29T21:23:49.579Z,13.23
2023-01-29T21:26:20.376Z,13.20
2023-01-29T21:28:49.641Z,13.47
2023-01-29T21:31:18.640Z,13.60
2023-01-29T21:33:48.293Z,13.70
2023-01-29T21:36:18.472Z,11.93
2023-01-29T21:38:46.831Z,11.40
2023-01-29T21:41:15.121Z,10.80
2023-01-29T21:43:45.504Z,11.20
2023-01-29T21:46:14.011Z,13.50
2023-01-29T21:48:42.608Z,19.60
2023-01-29T21:51:10.993Z,20.33
2023-01-29T21:53:39.270Z,23.10
2023-01-29T21:56:08.349Z,22.67
2023-01-29T21:58:36.948Z,19.03
2023-01-29T22:01:18.505Z,17.70
2023-01-29T22:03:55.814Z,16.50
2023-01-29T22:06:24.418Z,14.10
2023-01-29T22:08:52.899Z,11.03
2023-01-29T22:11:21.524Z,10.63
2023-01-29T22:13:49.834Z,9.97
2023-01-29T22:16:19.530Z,8.90
2023-01-29T22:18:47.973Z,8.50
2023-01-29T22:21:16.433Z,7.87
2023-01-29T22:23:45.426Z,7.47
2023-01-29T22:26:13.855Z,6.90
2023-01-29T22:28:42.612Z,7.87
2023-01-29T22:31:12.866Z,7.57
2023-01-29T22:33:42.982Z,8.20
2023-01-29T22:36:11.928Z,8.13
2023-01-29T22:38:40.283Z,7.50
2023-01-29T22:41:10.616Z,7.50
2023-01-29T22:43:39.354Z,7.60
2023-01-29T22:46:09.588Z,7.83
2023-01-29T22:48:37.906Z,8.73
2023-01-29T22:51:14.014Z,9.00
2023-01-29T22:53:44.741Z,10.47
2023-01-29T22:56:13.328Z,10.73
2023-01-29T22:58:42.337Z,10.43
2023-01-29T23:01:11.320Z,9.40
2023-01-29T23:03:39.693Z,10.17
2023-01-29T23:06:09.458Z,10.50
2023-01-29T23:08:37.803Z,12.03
2023-01-29T23:11:15.248Z,11.33
2023-01-29T23:13:45.179Z,11.77
2023-01-29T23:16:14.187Z,11.23
2023-01-29T23:18:43.043Z,10.77
2023-01-29T23:21:17.620Z,10.27
2023-01-29T23:23:45.894Z,8.80
2023-01-29T23:26:32.877Z,8.57
2023-01-29T23:29:01.514Z,9.50
2023-01-29T23:31:29.958Z,10.23
2023-01-29T23:33:58.809Z,9.70
2023-01-29T23:36:28.755Z,9.17
2023-01-29T23:38:57.026Z,9.20
2023-01-29T23:41:25.404Z,8.53
2023-01-29T23:43:54.122Z,7.57
2023-01-29T23:46:23.027Z,8.00
2023-01-29T23:48:51.440Z,8.53
2023-01-29T23:51:19.714Z,8.60
2023-01-29T23:53:49.546Z,8.93
2023-01-29T23:56:17.915Z,8.47
2023-01-29T23:58:46.393Z,8.13
